sensor_id;sensor_type;location;lat;lon;timestamp;P1;P2;P0
46591;PMS6003;32314;48.748;9.656;2023-02-22T00:01:31;8.25;8.25;5.00
46591;PMS6003;32314;48.748;9.656;2023-02-22T00:04:20;6.25;4.00;4.00
46591;PMS6003;32314;48.748;9.656;2023-02-22T00:07:06;9.00;9.00;7.00
46591;PMS6003;32314;48.748;9.656;2023-02-22T00:09:52;7.00;6.75;5.50
46591;PMS6003;32314;48.748;9.656;2023-02-22T00:12:39;6.75;6.25;5.50
46591;PMS6003;32314;48.748;9.656;2023-02-22T00:15:28;5.75;4.00;3.50
46591;PMS6003;32314;48.748;9.656;2023-02-22T00:18:14;6.00;6.00;4.00
46591;PMS6003;32314;48.748;9.656;2023-02-22T00:21:01;6.50;4.00;3.50
46591;PMS6003;32314;48.748;9.656;2023-02-22T00:23:47;5.00;5.00;4.00
46591;PMS6003;32314;48.748;9.656;2023-02-22T00:26:34;5.00;5.00;4.50
46591;PMS6003;32314;48.748;9.656;2023-02-22T00:29:20;0.50;0.50;0.00
46591;PMS6003;32314;48.748;9.656;2023-02-22T00:32:07;6.00;6.00;5.00
46591;PMS6003;32314;48.748;9.656;2023-02-22T00:34:53;6.00;4.00;3.75
46591;PMS6003;32314;48.748;9.656;2023-02-22T00:37:39;13.00;9.00;6.00
46591;PMS6003;32314;48.748;9.656;2023-02-22T00:40:32;6.00;3.75;3.00
46591;PMS6003;32314;48.748;9.656;2023-02-22T00:43:20;6.50;6.50;4.00
46591;PMS6003;32314;48.748;9.656;2023-02-22T00:46:06;8.50;6.25;4.00
46591;PMS6003;32314;48.748;9.656;2023-02-22T00:48:52;5.00;5.00;3.75
46591;PMS6003;32314;48.748;9.656;2023-02-22T00:51:39;4.00;4.00;3.25
46591;PMS6003;32314;48.748;9.656;2023-02-22T00:54:25;7.75;7.75;5.50
46591;PMS6003;32314;48.748;9.656;2023-02-22T00:57:13;3.25;3.00;1.00
46591;PMS6003;32314;48.748;9.656;2023-02-22T01:00:00;8.00;8.00;6.00
46591;PMS6003;32314;48.748;9.656;2023-02-22T01:02:58;4.50;4.50;4.00
46591;PMS6003;32314;48.748;9.656;2023-02-22T01:05:43;6.25;6.25;5.00
46591;PMS6003;32314;48.748;9.656;2023-02-22T01:08:29;11.00;6.50;5.00
46591;PMS6003;32314;48.748;9.656;2023-02-22T01:11:17;5.50;5.50;4.00
46591;PMS6003;32314;48.748;9.656;2023-02-22T01:14:02;6.50;6.00;5.50
46591;PMS6003;32314;48.748;9.656;2023-02-22T01:16:49;8.50;6.50;4.50
46591;PMS6003;32314;48.748;9.656;2023-02-22T01:19:37;5.50;5.50;4.00
46591;PMS6003;32314;48.748;9.656;2023-02-22T01:22:26;4.50;4.50;4.00
46591;PMS6003;32314;48.748;9.656;2023-02-22T01:25:15;8.25;6.00;4.00
46591;PMS6003;32314;48.748;9.656;2023-02-22T01:28:03;9.50;7.00;5.50
46591;PMS6003;32314;48.748;9.656;2023-02-22T01:30:50;6.75;4.00;3.50
46591;PMS6003;32314;48.748;9.656;2023-02-22T01:33:36;10.00;6.00;5.50
46591;PMS6003;32314;48.748;9.656;2023-02-22T01:36:21;6.50;6.25;5.00
46591;PMS6003;32314;48.748;9.656;2023-02-22T01:39:07;3.75;3.50;3.00
46591;PMS6003;32314;48.748;9.656;2023-02-22T01:41:55;11.75;6.25;4.50
46591;PMS6003;32314;48.748;9.656;2023-02-22T01:44:42;8.50;8.00;4.50
46591;PMS6003;32314;48.748;9.656;2023-02-22T01:47:28;7.00;7.00;6.00
46591;PMS6003;32314;48.748;9.656;2023-02-22T01:50:14;8.50;6.50;6.00
46591;PMS6003;32314;48.748;9.656;2023-02-22T01:53:00;4.75;4.00;3.00
46591;PMS6003;32314;48.748;9.656;2023-02-22T01:55:46;8.50;6.00;5.50
46591;PMS6003;32314;48.748;9.656;2023-02-22T01:58:32;8.50;7.75;4.50
46591;PMS6003;32314;48.748;9.656;2023-02-22T02:01:20;7.50;5.00;4.00
46591;PMS6003;32314;48.748;9.656;2023-02-22T02:04:11;8.00;8.00;5.00
46591;PMS6003;32314;48.748;9.656;2023-02-22T02:07:04;1.00;1.00;1.00
46591;PMS6003;32314;48.748;9.656;2023-02-22T02:09:59;6.50;6.00;4.00
46591;PMS6003;32314;48.748;9.656;2023-02-22T02:12:47;5.00;5.00;3.50
46591;PMS6003;32314;48.748;9.656;2023-02-22T02:15:34;6.00;6.00;4.00
46591;PMS6003;32314;48.748;9.656;2023-02-22T02:18:20;7.50;5.50;3.00
46591;PMS6003;32314;48.748;9.656;2023-02-22T02:30:58;3.50;3.25;3.00
46591;PMS6003;32314;48.748;9.656;2023-02-22T02:37:11;7.00;7.00;4.00
46591;PMS6003;32314;48.748;9.656;2023-02-22T02:40:14;6.25;6.25;4.50
46591;PMS6003;32314;48.748;9.656;2023-02-22T02:46:19;11.75;7.25;3.75
46591;PMS6003;32314;48.748;9.656;2023-02-22T02:49:13;5.50;5.50;4.00
46591;PMS6003;32314;48.748;9.656;2023-02-22T02:52:03;8.00;5.50;3.75
46591;PMS6003;32314;48.748;9.656;2023-02-22T02:54:50;5.50;5.50;3.75
46591;PMS6003;32314;48.748;9.656;2023-02-22T02:57:36;4.50;4.50;4.00
46591;PMS6003;32314;48.748;9.656;2023-02-22T03:00:26;4.00;4.00;3.75
46591;PMS6003;32314;48.748;9.656;2023-02-22T03:03:18;6.25;1.50;1.50
46591;PMS6003;32314;48.748;9.656;2023-02-22T03:06:27;4.00;4.00;3.00
46591;PMS6003;32314;48.748;9.656;2023-02-22T03:18:49;6.25;4.00;3.00
46591;PMS6003;32314;48.748;9.656;2023-02-22T03:24:30;5.50;5.50;4.50
46591;PMS6003;32314;48.748;9.656;2023-02-22T03:27:22;6.75;2.00;1.00
46591;PMS6003;32314;48.748;9.656;2023-02-22T03:30:15;9.25;4.75;3.75
46591;PMS6003;32314;48.748;9.656;2023-02-22T03:33:06;6.00;4.00;4.00
46591;PMS6003;32314;48.748;9.656;2023-02-22T03:38:59;3.50;3.50;2.00
46591;PMS6003;32314;48.748;9.656;2023-02-22T03:41:46;6.00;3.75;3.50
46591;PMS6003;32314;48.748;9.656;2023-02-22T03:44:39;7.75;7.00;6.00
46591;PMS6003;32314;48.748;9.656;2023-02-22T03:47:30;4.50;4.50;4.00
46591;PMS6003;32314;48.748;9.656;2023-02-22T03:50:28;6.75;4.00;3.75
46591;PMS6003;32314;48.748;9.656;2023-02-22T03:53:15;8.50;8.50;6.75
46591;PMS6003;32314;48.748;9.656;2023-02-22T03:56:06;6.75;5.75;5.25
46591;PMS6003;32314;48.748;9.656;2023-02-22T03:58:54;5.00;4.00;3.00
46591;PMS6003;32314;48.748;9.656;2023-02-22T04:01:47;5.50;3.75;3.00
46591;PMS6003;32314;48.748;9.656;2023-02-22T04:04:35;11.50;9.00;6.00
46591;PMS6003;32314;48.748;9.656;2023-02-22T04:07:21;0.75;0.75;0.50
46591;PMS6003;32314;48.748;9.656;2023-02-22T04:10:10;4.50;4.50;3.00
46591;PMS6003;32314;48.748;9.656;2023-02-22T04:12:57;3.00;3.00;3.00
46591;PMS6003;32314;48.748;9.656;2023-02-22T04:15:43;8.50;4.00;3.50
46591;PMS6003;32314;48.748;9.656;2023-02-22T04:18:30;8.50;4.50;3.75
46591;PMS6003;32314;48.748;9.656;2023-02-22T04:21:15;13.00;9.00;6.25
46591;PMS6003;32314;48.748;9.656;2023-02-22T04:24:05;6.00;6.00;5.50
46591;PMS6003;32314;48.748;9.656;2023-02-22T04:26:51;8.75;7.00;6.00
46591;PMS6003;32314;48.748;9.656;2023-02-22T04:29:39;11.25;7.00;4.50
46591;PMS6003;32314;48.748;9.656;2023-02-22T04:32:26;8.00;8.00;6.25
46591;PMS6003;32314;48.748;9.656;2023-02-22T04:35:12;5.50;5.50;4.00
46591;PMS6003;32314;48.748;9.656;2023-02-22T04:37:58;9.00;7.50;5.50
46591;PMS6003;32314;48.748;9.656;2023-02-22T04:40:44;8.50;8.00;6.00
46591;PMS6003;32314;48.748;9.656;2023-02-22T04:43:30;7.00;7.00;6.00
46591;PMS6003;32314;48.748;9.656;2023-02-22T04:46:24;6.00;5.50;4.00
46591;PMS6003;32314;48.748;9.656;2023-02-22T04:49:11;7.50;6.00;4.50
46591;PMS6003;32314;48.748;9.656;2023-02-22T04:51:59;6.50;6.50;3.50
46591;PMS6003;32314;48.748;9.656;2023-02-22T04:54:52;3.75;3.75;3.00
46591;PMS6003;32314;48.748;9.656;2023-02-22T04:57:38;6.00;6.00;6.00
46591;PMS6003;32314;48.748;9.656;2023-02-22T05:00:24;8.00;7.50;6.25
46591;PMS6003;32314;48.748;9.656;2023-02-22T05:03:16;9.00;9.00;6.00
46591;PMS6003;32314;48.748;9.656;2023-02-22T05:06:01;7.00;7.00;4.00
46591;PMS6003;32314;48.748;9.656;2023-02-22T05:08:47;8.00;8.00;4.25
46591;PMS6003;32314;48.748;9.656;2023-02-22T05:11:33;3.50;3.50;2.00
46591;PMS6003;32314;48.748;9.656;2023-02-22T05:14:19;4.00;4.00;3.25
46591;PMS6003;32314;48.748;9.656;2023-02-22T05:17:04;5.00;5.00;4.25
46591;PMS6003;32314;48.748;9.656;2023-02-22T05:19:50;10.25;7.00;6.00
46591;PMS6003;32314;48.748;9.656;2023-02-22T05:22:36;4.00;4.00;3.50
46591;PMS6003;32314;48.748;9.656;2023-02-22T05:25:22;4.50;4.50;4.00
46591;PMS6003;32314;48.748;9.656;2023-02-22T05:28:12;5.50;5.50;4.00
46591;PMS6003;32314;48.748;9.656;2023-02-22T05:31:00;6.00;4.00;3.00
46591;PMS6003;32314;48.748;9.656;2023-02-22T05:33:46;7.25;5.50;3.50
46591;PMS6003;32314;48.748;9.656;2023-02-22T05:36:32;9.00;6.75;6.00
46591;PMS6003;32314;48.748;9.656;2023-02-22T05:39:18;6.25;3.75;3.00
46591;PMS6003;32314;48.748;9.656;2023-02-22T05:42:04;4.00;4.00;4.00
46591;PMS6003;32314;48.748;9.656;2023-02-22T05:44:50;4.50;4.50;4.00
46591;PMS6003;32314;48.748;9.656;2023-02-22T05:47:36;12.75;8.50;5.00
46591;PMS6003;32314;48.748;9.656;2023-02-22T05:50:23;10.50;6.00;4.00
46591;PMS6003;32314;48.748;9.656;2023-02-22T05:53:09;6.00;6.00;4.00
46591;PMS6003;32314;48.748;9.656;2023-02-22T05:55:55;10.00;6.00;4.00
46591;PMS6003;32314;48.748;9.656;2023-02-22T05:58:41;7.50;7.50;6.00
46591;PMS6003;32314;48.748;9.656;2023-02-22T06:01:27;4.50;4.50;4.00
46591;PMS6003;32314;48.748;9.656;2023-02-22T06:04:12;9.00;8.00;7.00
46591;PMS6003;32314;48.748;9.656;2023-02-22T06:06:58;10.75;7.00;4.00
46591;PMS6003;32314;48.748;9.656;2023-02-22T06:09:44;9.00;7.50;5.00
46591;PMS6003;32314;48.748;9.656;2023-02-22T06:12:30;7.00;7.00;4.00
46591;PMS6003;32314;48.748;9.656;2023-02-22T06:15:16;12.50;12.50;9.50
46591;PMS6003;32314;48.748;9.656;2023-02-22T06:18:02;9.75;9.75;6.75
46591;PMS6003;32314;48.748;9.656;2023-02-22T06:20:48;9.75;7.50;6.00
46591;PMS6003;32314;48.748;9.656;2023-02-22T06:23:35;12.00;8.00;6.25
46591;PMS6003;32314;48.748;9.656;2023-02-22T06:26:21;11.50;10.00;8.50
46591;PMS6003;32314;48.748;9.656;2023-02-22T06:29:07;13.50;11.00;9.00
46591;PMS6003;32314;48.748;9.656;2023-02-22T06:31:54;12.00;8.50;6.00
46591;PMS6003;32314;48.748;9.656;2023-02-22T06:34:40;16.75;12.25;9.75
46591;PMS6003;32314;48.748;9.656;2023-02-22T06:37:25;12.25;9.50;7.50
46591;PMS6003;32314;48.748;9.656;2023-02-22T06:40:11;17.75;13.00;10.00
46591;PMS6003;32314;48.748;9.656;2023-02-22T06:42:57;10.25;10.25;6.50
46591;PMS6003;32314;48.748;9.656;2023-02-22T06:45:44;12.50;9.00;6.75
46591;PMS6003;32314;48.748;9.656;2023-02-22T06:48:30;8.25;8.25;5.50
46591;PMS6003;32314;48.748;9.656;2023-02-22T06:51:16;9.75;9.75;8.50
46591;PMS6003;32314;48.748;9.656;2023-02-22T06:54:02;13.00;9.25;6.75
46591;PMS6003;32314;48.748;9.656;2023-02-22T06:56:48;7.25;7.25;6.25
46591;PMS6003;32314;48.748;9.656;2023-02-22T06:59:34;6.25;6.25;5.00
46591;PMS6003;32314;48.748;9.656;2023-02-22T07:02:20;6.25;6.25;6.25
46591;PMS6003;32314;48.748;9.656;2023-02-22T07:05:06;7.50;7.25;6.00
46591;PMS6003;32314;48.748;9.656;2023-02-22T07:07:53;10.25;10.25;7.50
46591;PMS6003;32314;48.748;9.656;2023-02-22T07:10:45;8.00;8.00;6.00
46591;PMS6003;32314;48.748;9.656;2023-02-22T07:13:31;9.00;7.00;4.00
46591;PMS6003;32314;48.748;9.656;2023-02-22T07:16:17;14.00;9.75;7.00
46591;PMS6003;32314;48.748;9.656;2023-02-22T07:19:02;9.50;7.00;5.00
46591;PMS6003;32314;48.748;9.656;2023-02-22T07:21:48;6.75;5.00;4.00
46591;PMS6003;32314;48.748;9.656;2023-02-22T07:24:35;11.00;6.00;4.00
46591;PMS6003;32314;48.748;9.656;2023-02-22T07:27:21;6.75;6.75;5.50
46591;PMS6003;32314;48.748;9.656;2023-02-22T07:30:20;9.00;7.00;6.25
46591;PMS6003;32314;48.748;9.656;2023-02-22T07:33:10;10.00;7.50;6.00
46591;PMS6003;32314;48.748;9.656;2023-02-22T07:35:56;10.50;6.50;5.50
46591;PMS6003;32314;48.748;9.656;2023-02-22T07:38:43;7.50;7.50;6.00
46591;PMS6003;32314;48.748;9.656;2023-02-22T07:41:29;12.00;8.50;6.00
46591;PMS6003;32314;48.748;9.656;2023-02-22T07:44:15;5.50;5.50;4.00
46591;PMS6003;32314;48.748;9.656;2023-02-22T07:47:01;9.25;8.50;7.00
46591;PMS6003;32314;48.748;9.656;2023-02-22T07:49:47;6.00;3.25;2.00
46591;PMS6003;32314;48.748;9.656;2023-02-22T07:52:33;8.00;8.00;6.50
46591;PMS6003;32314;48.748;9.656;2023-02-22T07:55:20;11.00;11.00;8.00
46591;PMS6003;32314;48.748;9.656;2023-02-22T07:58:07;21.50;14.00;11.50
46591;PMS6003;32314;48.748;9.656;2023-02-22T08:00:53;18.75;12.75;9.50
46591;PMS6003;32314;48.748;9.656;2023-02-22T08:03:39;18.00;15.50;12.25
46591;PMS6003;32314;48.748;9.656;2023-02-22T08:06:25;21.75;18.75;12.25
46591;PMS6003;32314;48.748;9.656;2023-02-22T08:09:12;9.50;9.25;3.00
46591;PMS6003;32314;48.748;9.656;2023-02-22T08:11:58;21.00;20.00;13.00
46591;PMS6003;32314;48.748;9.656;2023-02-22T08:14:44;21.25;16.50;12.00
46591;PMS6003;32314;48.748;9.656;2023-02-22T08:17:29;20.75;17.25;12.00
46591;PMS6003;32314;48.748;9.656;2023-02-22T08:20:15;27.50;20.75;13.50
46591;PMS6003;32314;48.748;9.656;2023-02-22T08:23:01;16.75;16.75;12.50
46591;PMS6003;32314;48.748;9.656;2023-02-22T08:25:49;21.00;17.33;13.00
46591;PMS6003;32314;48.748;9.656;2023-02-22T08:28:35;18.67;12.33;9.67
46591;PMS6003;32314;48.748;9.656;2023-02-22T08:31:21;19.67;14.33;10.00
46591;PMS6003;32314;48.748;9.656;2023-02-22T08:34:06;16.67;15.67;10.67
46591;PMS6003;32314;48.748;9.656;2023-02-22T08:36:52;11.33;11.33;9.33
46591;PMS6003;32314;48.748;9.656;2023-02-22T08:39:38;24.67;20.33;12.67
46591;PMS6003;32314;48.748;9.656;2023-02-22T08:42:24;21.33;19.00;12.00
46591;PMS6003;32314;48.748;9.656;2023-02-22T08:45:10;17.67;12.00;9.00
46591;PMS6003;32314;48.748;9.656;2023-02-22T08:47:57;13.00;13.00;10.00
46591;PMS6003;32314;48.748;9.656;2023-02-22T08:50:43;12.00;12.00;10.00
46591;PMS6003;32314;48.748;9.656;2023-02-22T08:53:30;25.33;22.33;18.00
46591;PMS6003;32314;48.748;9.656;2023-02-22T08:56:17;27.25;23.00;16.75
46591;PMS6003;32314;48.748;9.656;2023-02-22T08:59:03;21.50;19.75;16.25
46591;PMS6003;32314;48.748;9.656;2023-02-22T09:01:48;22.50;22.50;18.50
46591;PMS6003;32314;48.748;9.656;2023-02-22T09:04:34;27.25;26.00;18.75
46591;PMS6003;32314;48.748;9.656;2023-02-22T09:07:20;22.50;22.50;18.25
46591;PMS6003;32314;48.748;9.656;2023-02-22T09:10:06;23.75;21.50;17.50
46591;PMS6003;32314;48.748;9.656;2023-02-22T09:12:52;25.00;21.25;17.50
46591;PMS6003;32314;48.748;9.656;2023-02-22T09:15:41;25.00;19.25;16.50
46591;PMS6003;32314;48.748;9.656;2023-02-22T09:18:27;24.25;24.25;17.00
46591;PMS6003;32314;48.748;9.656;2023-02-22T09:21:13;23.50;21.75;18.75
46591;PMS6003;32314;48.748;9.656;2023-02-22T09:23:59;28.25;26.25;19.75
46591;PMS6003;32314;48.748;9.656;2023-02-22T09:26:52;23.25;23.25;17.00
46591;PMS6003;32314;48.748;9.656;2023-02-22T09:29:38;24.00;22.75;15.25
46591;PMS6003;32314;48.748;9.656;2023-02-22T09:32:24;25.50;25.00;19.00
46591;PMS6003;32314;48.748;9.656;2023-02-22T09:35:12;30.75;29.00;21.25
46591;PMS6003;32314;48.748;9.656;2023-02-22T09:37:58;26.75;25.75;21.00
46591;PMS6003;32314;48.748;9.656;2023-02-22T09:40:46;27.00;27.00;19.25
46591;PMS6003;32314;48.748;9.656;2023-02-22T09:43:40;28.50;25.75;22.00
46591;PMS6003;32314;48.748;9.656;2023-02-22T09:49:27;24.00;23.25;18.25
46591;PMS6003;32314;48.748;9.656;2023-02-22T09:52:32;24.25;24.25;17.00
46591;PMS6003;32314;48.748;9.656;2023-02-22T09:55:35;20.00;16.25;9.00
46591;PMS6003;32314;48.748;9.656;2023-02-22T09:58:32;21.75;21.75;17.50
46591;PMS6003;32314;48.748;9.656;2023-02-22T10:07:29;25.50;22.75;16.00
46591;PMS6003;32314;48.748;9.656;2023-02-22T10:10:18;20.25;20.25;14.00
46591;PMS6003;32314;48.748;9.656;2023-02-22T10:23:12;21.75;21.75;15.50
46591;PMS6003;32314;48.748;9.656;2023-02-22T10:26:28;23.75;22.50;16.00
46591;PMS6003;32314;48.748;9.656;2023-02-22T10:29:29;22.25;20.00;15.50
46591;PMS6003;32314;48.748;9.656;2023-02-22T10:32:22;23.25;20.25;15.00
46591;PMS6003;32314;48.748;9.656;2023-02-22T10:35:20;21.75;19.00;16.75
46591;PMS6003;32314;48.748;9.656;2023-02-22T10:38:13;22.50;20.00;15.25
46591;PMS6003;32314;48.748;9.656;2023-02-22T10:41:02;22.00;20.75;15.25
46591;PMS6003;32314;48.748;9.656;2023-02-22T10:44:04;21.00;21.00;16.50
46591;PMS6003;32314;48.748;9.656;2023-02-22T10:46:49;23.75;19.75;15.25
46591;PMS6003;32314;48.748;9.656;2023-02-22T10:49:46;24.50;24.00;17.75
46591;PMS6003;32314;48.748;9.656;2023-02-22T10:52:34;17.25;16.00;14.75
46591;PMS6003;32314;48.748;9.656;2023-02-22T10:55:20;21.75;19.00;15.00
46591;PMS6003;32314;48.748;9.656;2023-02-22T10:58:06;20.25;19.25;16.00
46591;PMS6003;32314;48.748;9.656;2023-02-22T11:00:52;18.75;18.75;15.00
46591;PMS6003;32314;48.748;9.656;2023-02-22T11:03:38;22.50;20.75;15.00
46591;PMS6003;32314;48.748;9.656;2023-02-22T11:06:27;20.75;20.75;15.75
46591;PMS6003;32314;48.748;9.656;2023-02-22T11:09:16;24.25;23.25;16.00
46591;PMS6003;32314;48.748;9.656;2023-02-22T11:12:07;22.50;21.50;17.00
46591;PMS6003;32314;48.748;9.656;2023-02-22T11:18:15;20.25;20.25;14.25
46591;PMS6003;32314;48.748;9.656;2023-02-22T11:21:08;24.25;24.25;19.00
46591;PMS6003;32314;48.748;9.656;2023-02-22T11:24:06;26.75;23.75;17.50
46591;PMS6003;32314;48.748;9.656;2023-02-22T11:26:54;21.75;21.25;17.75
46591;PMS6003;32314;48.748;9.656;2023-02-22T11:29:43;24.25;22.00;18.00
46591;PMS6003;32314;48.748;9.656;2023-02-22T11:32:35;20.25;20.25;15.25
46591;PMS6003;32314;48.748;9.656;2023-02-22T11:41:19;18.00;18.00;16.25
46591;PMS6003;32314;48.748;9.656;2023-02-22T11:44:19;24.25;23.00;16.50
46591;PMS6003;32314;48.748;9.656;2023-02-22T11:47:08;23.75;23.75;16.25
46591;PMS6003;32314;48.748;9.656;2023-02-22T11:49:55;23.25;21.00;16.00
46591;PMS6003;32314;48.748;9.656;2023-02-22T11:52:43;23.75;21.75;15.00
46591;PMS6003;32314;48.748;9.656;2023-02-22T11:55:34;21.00;19.25;14.75
46591;PMS6003;32314;48.748;9.656;2023-02-22T11:58:42;20.50;20.50;15.75
46591;PMS6003;32314;48.748;9.656;2023-02-22T12:01:38;20.25;17.25;14.25
46591;PMS6003;32314;48.748;9.656;2023-02-22T12:10:59;17.25;17.25;14.25
46591;PMS6003;32314;48.748;9.656;2023-02-22T12:14:04;22.50;20.00;15.00
46591;PMS6003;32314;48.748;9.656;2023-02-22T12:19:56;17.75;17.75;13.00
46591;PMS6003;32314;48.748;9.656;2023-02-22T12:22:52;18.25;18.25;13.25
46591;PMS6003;32314;48.748;9.656;2023-02-22T12:31:50;12.00;12.00;10.00
46591;PMS6003;32314;48.748;9.656;2023-02-22T12:37:52;13.25;12.00;10.00
46591;PMS6003;32314;48.748;9.656;2023-02-22T12:40:43;14.00;11.00;9.00
46591;PMS6003;32314;48.748;9.656;2023-02-22T12:43:34;11.50;11.50;10.25
46591;PMS6003;32314;48.748;9.656;2023-02-22T12:52:45;7.50;7.50;6.50
46591;PMS6003;32314;48.748;9.656;2023-02-22T13:01:17;10.75;8.25;7.50
46591;PMS6003;32314;48.748;9.656;2023-02-22T13:04:05;5.00;4.25;3.25
46591;PMS6003;32314;48.748;9.656;2023-02-22T13:06:56;8.25;7.00;5.75
46591;PMS6003;32314;48.748;9.656;2023-02-22T13:09:58;9.25;8.25;6.00
46591;PMS6003;32314;48.748;9.656;2023-02-22T13:13:14;9.00;9.00;8.00
46591;PMS6003;32314;48.748;9.656;2023-02-22T13:16:11;6.75;6.25;4.75
46591;PMS6003;32314;48.748;9.656;2023-02-22T13:19:23;9.00;9.00;7.50
46591;PMS6003;32314;48.748;9.656;2023-02-22T13:22:17;10.00;10.00;6.50
46591;PMS6003;32314;48.748;9.656;2023-02-22T13:25:14;9.00;9.00;7.00
46591;PMS6003;32314;48.748;9.656;2023-02-22T13:34:25;13.00;13.00;10.00
46591;PMS6003;32314;48.748;9.656;2023-02-22T13:37:40;10.50;10.50;8.00
46591;PMS6003;32314;48.748;9.656;2023-02-22T13:44:15;13.00;11.50;8.25
46591;PMS6003;32314;48.748;9.656;2023-02-22T13:53:30;11.75;11.75;10.00
46591;PMS6003;32314;48.748;9.656;2023-02-22T13:56:24;11.00;11.00;8.00
46591;PMS6003;32314;48.748;9.656;2023-02-22T13:59:25;10.50;10.50;8.50
46591;PMS6003;32314;48.748;9.656;2023-02-22T14:17:21;12.25;11.00;8.75
46591;PMS6003;32314;48.748;9.656;2023-02-22T14:20:02;14.00;14.00;9.50
46591;PMS6003;32314;48.748;9.656;2023-02-22T14:29:16;13.25;12.50;10.50
46591;PMS6003;32314;48.748;9.656;2023-02-22T14:32:06;13.00;12.25;8.25
46591;PMS6003;32314;48.748;9.656;2023-02-22T14:34:55;10.00;8.75;7.00
46591;PMS6003;32314;48.748;9.656;2023-02-22T14:37:43;12.00;9.50;7.50
46591;PMS6003;32314;48.748;9.656;2023-02-22T14:40:35;12.00;12.00;10.00
46591;PMS6003;32314;48.748;9.656;2023-02-22T14:43:22;12.75;10.00;7.50
46591;PMS6003;32314;48.748;9.656;2023-02-22T14:46:09;11.00;10.50;8.00
46591;PMS6003;32314;48.748;9.656;2023-02-22T14:48:59;12.00;10.25;8.00
46591;PMS6003;32314;48.748;9.656;2023-02-22T14:51:50;11.25;10.00;8.00
46591;PMS6003;32314;48.748;9.656;2023-02-22T14:54:46;6.25;6.25;5.25
46591;PMS6003;32314;48.748;9.656;2023-02-22T14:57:42;8.75;7.75;6.00
46591;PMS6003;32314;48.748;9.656;2023-02-22T15:00:45;11.50;10.00;8.00
46591;PMS6003;32314;48.748;9.656;2023-02-22T15:03:32;10.75;10.25;8.50
46591;PMS6003;32314;48.748;9.656;2023-02-22T15:06:22;13.25;11.50;9.00
46591;PMS6003;32314;48.748;9.656;2023-02-22T15:14:47;9.50;9.25;7.25
46591;PMS6003;32314;48.748;9.656;2023-02-22T15:17:34;12.75;11.25;8.50
46591;PMS6003;32314;48.748;9.656;2023-02-22T15:20:20;13.75;13.75;9.00
46591;PMS6003;32314;48.748;9.656;2023-02-22T15:23:06;12.25;11.25;7.25
46591;PMS6003;32314;48.748;9.656;2023-02-22T15:25:52;12.00;10.25;8.50
46591;PMS6003;32314;48.748;9.656;2023-02-22T15:28:38;14.25;11.00;9.00
46591;PMS6003;32314;48.748;9.656;2023-02-22T15:31:29;21.00;18.00;10.00
46591;PMS6003;32314;48.748;9.656;2023-02-22T15:34:19;12.25;12.00;8.25
46591;PMS6003;32314;48.748;9.656;2023-02-22T15:37:19;16.25;15.00;10.00
46591;PMS6003;32314;48.748;9.656;2023-02-22T15:40:14;9.75;9.75;8.00
46591;PMS6003;32314;48.748;9.656;2023-02-22T15:43:05;11.50;11.50;9.50
46591;PMS6003;32314;48.748;9.656;2023-02-22T15:45:55;16.50;16.50;10.00
46591;PMS6003;32314;48.748;9.656;2023-02-22T15:48:42;18.25;17.50;11.75
46591;PMS6003;32314;48.748;9.656;2023-02-22T15:51:28;13.00;13.00;10.00
46591;PMS6003;32314;48.748;9.656;2023-02-22T15:54:13;18.50;16.75;14.25
46591;PMS6003;32314;48.748;9.656;2023-02-22T15:57:00;14.75;14.75;11.25
46591;PMS6003;32314;48.748;9.656;2023-02-22T15:59:50;17.00;14.75;10.00
46591;PMS6003;32314;48.748;9.656;2023-02-22T16:02:37;17.25;15.75;13.50
46591;PMS6003;32314;48.748;9.656;2023-02-22T16:05:27;17.75;15.00;11.75
46591;PMS6003;32314;48.748;9.656;2023-02-22T16:08:23;15.25;15.25;13.25
46591;PMS6003;32314;48.748;9.656;2023-02-22T16:11:23;23.75;20.00;13.75
46591;PMS6003;32314;48.748;9.656;2023-02-22T16:23:22;25.75;22.25;14.75
46591;PMS6003;32314;48.748;9.656;2023-02-22T16:26:21;25.25;22.50;17.25
46591;PMS6003;32314;48.748;9.656;2023-02-22T16:29:07;25.75;20.75;15.00
46591;PMS6003;32314;48.748;9.656;2023-02-22T16:31:53;25.75;24.50;15.00
46591;PMS6003;32314;48.748;9.656;2023-02-22T16:34:39;21.00;17.75;15.00
46591;PMS6003;32314;48.748;9.656;2023-02-22T16:37:25;16.75;16.75;12.25
46591;PMS6003;32314;48.748;9.656;2023-02-22T16:40:35;17.00;16.75;13.00
46591;PMS6003;32314;48.748;9.656;2023-02-22T16:43:24;18.00;18.00;13.50
46591;PMS6003;32314;48.748;9.656;2023-02-22T16:46:13;19.75;17.50;14.75
46591;PMS6003;32314;48.748;9.656;2023-02-22T16:48:59;23.50;21.75;14.00
46591;PMS6003;32314;48.748;9.656;2023-02-22T16:51:59;46.67;38.00;25.00
46591;PMS6003;32314;48.748;9.656;2023-02-22T16:54:46;42.67;36.33;24.00
46591;PMS6003;32314;48.748;9.656;2023-02-22T16:57:33;35.50;30.25;22.00
46591;PMS6003;32314;48.748;9.656;2023-02-22T17:00:21;31.33;28.67;20.00
46591;PMS6003;32314;48.748;9.656;2023-02-22T17:03:16;32.50;30.75;19.25
46591;PMS6003;32314;48.748;9.656;2023-02-22T17:06:03;26.25;23.75;18.00
46591;PMS6003;32314;48.748;9.656;2023-02-22T17:08:49;31.75;27.50;19.75
46591;PMS6003;32314;48.748;9.656;2023-02-22T17:11:36;25.75;25.00;18.50
46591;PMS6003;32314;48.748;9.656;2023-02-22T17:14:31;25.67;23.33;16.00
46591;PMS6003;32314;48.748;9.656;2023-02-22T17:17:18;29.00;27.00;17.33
46591;PMS6003;32314;48.748;9.656;2023-02-22T17:20:04;28.00;28.00;22.00
46591;PMS6003;32314;48.748;9.656;2023-02-22T17:22:56;40.33;33.33;23.00
46591;PMS6003;32314;48.748;9.656;2023-02-22T17:25:44;36.00;33.33;24.00
46591;PMS6003;32314;48.748;9.656;2023-02-22T17:28:33;34.00;31.00;21.33
46591;PMS6003;32314;48.748;9.656;2023-02-22T17:31:20;36.67;34.00;24.00
46591;PMS6003;32314;48.748;9.656;2023-02-22T17:34:07;30.33;28.00;21.33
46591;PMS6003;32314;48.748;9.656;2023-02-22T17:36:53;30.00;27.67;21.00
46591;PMS6003;32314;48.748;9.656;2023-02-22T17:39:38;25.33;25.33;18.00
46591;PMS6003;32314;48.748;9.656;2023-02-22T17:42:24;29.00;29.00;21.00
46591;PMS6003;32314;48.748;9.656;2023-02-22T17:45:11;32.00;27.67;20.00
46591;PMS6003;32314;48.748;9.656;2023-02-22T17:48:01;26.00;26.00;19.33
46591;PMS6003;32314;48.748;9.656;2023-02-22T17:50:47;28.00;26.33;21.00
46591;PMS6003;32314;48.748;9.656;2023-02-22T17:53:34;24.00;23.00;18.00
46591;PMS6003;32314;48.748;9.656;2023-02-22T17:56:20;21.67;21.67;14.00
46591;PMS6003;32314;48.748;9.656;2023-02-22T17:59:05;18.00;13.00;9.67
46591;PMS6003;32314;48.748;9.656;2023-02-22T18:01:53;20.67;15.00;9.33
46591;PMS6003;32314;48.748;9.656;2023-02-22T18:04:39;13.67;11.33;9.33
46591;PMS6003;32314;48.748;9.656;2023-02-22T18:07:25;16.67;13.67;8.33
46591;PMS6003;32314;48.748;9.656;2023-02-22T18:10:11;28.33;27.33;19.67
46591;PMS6003;32314;48.748;9.656;2023-02-22T18:12:57;41.00;33.00;20.00
46591;PMS6003;32314;48.748;9.656;2023-02-22T18:15:46;29.00;29.00;20.67
46591;PMS6003;32314;48.748;9.656;2023-02-22T18:18:33;22.67;22.00;19.00
46591;PMS6003;32314;48.748;9.656;2023-02-22T18:21:19;21.67;19.00;15.00
46591;PMS6003;32314;48.748;9.656;2023-02-22T18:24:05;17.67;15.33;12.67
46591;PMS6003;32314;48.748;9.656;2023-02-22T18:26:51;19.00;16.00;13.00
46591;PMS6003;32314;48.748;9.656;2023-02-22T18:29:37;20.67;14.33;11.33
46591;PMS6003;32314;48.748;9.656;2023-02-22T18:32:23;18.00;15.00;9.67